createdAt,value
2019-06-27T00:00:34.607Z,27.30
2019-06-27T00:03:05.573Z,27.20
2019-06-27T00:05:35.978Z,27.20
2019-06-27T00:08:06.372Z,27.20
2019-06-27T00:10:36.766Z,27.10
2019-06-27T00:13:07.143Z,27.10
2019-06-27T00:15:37.553Z,27.10
2019-06-27T00:18:07.921Z,27.00
2019-06-27T00:20:38.307Z,27.00
2019-06-27T00:23:09.015Z,27.00
2019-06-27T00:25:39.432Z,26.90
2019-06-27T00:28:09.819Z,26.90
2019-06-27T00:30:40.196Z,26.90
2019-06-27T00:33:10.587Z,26.90
2019-06-27T00:35:41.104Z,26.90
2019-06-27T00:38:11.543Z,26.80
2019-06-27T00:40:41.949Z,26.60
2019-06-27T00:43:12.319Z,26.50
2019-06-27T00:45:42.718Z,26.40
2019-06-27T00:48:13.082Z,26.40
2019-06-27T00:50:43.622Z,26.50
2019-06-27T00:53:13.975Z,26.50
2019-06-27T00:55:44.358Z,26.50
2019-06-27T00:58:14.755Z,26.40
2019-06-27T01:00:45.160Z,26.40
2019-06-27T01:03:15.554Z,26.40
2019-06-27T01:05:45.947Z,26.30
2019-06-27T01:08:16.322Z,26.40
2019-06-27T01:10:46.710Z,26.50
2019-06-27T01:13:17.094Z,26.40
2019-06-27T01:15:47.524Z,26.30
2019-06-27T01:18:17.896Z,26.30
2019-06-27T01:20:48.250Z,26.20
2019-06-27T01:23:19.490Z,26.20
2019-06-27T01:25:49.898Z,26.10
2019-06-27T01:28:20.278Z,26.10
2019-06-27T01:30:50.653Z,26.00
2019-06-27T01:33:21.035Z,26.00
2019-06-27T01:35:51.395Z,26.10
2019-06-27T01:38:21.782Z,26.10
2019-06-27T01:40:52.159Z,26.10
2019-06-27T01:43:22.555Z,26.00
2019-06-27T01:45:55.564Z,26.00
2019-06-27T01:48:25.951Z,26.00
2019-06-27T01:50:56.395Z,26.00
2019-06-27T01:53:26.787Z,26.00
2019-06-27T01:55:57.158Z,26.00
2019-06-27T01:58:27.550Z,26.00
2019-06-27T02:00:58.028Z,26.00
2019-06-27T02:03:28.440Z,26.00
2019-06-27T02:05:58.894Z,25.90
2019-06-27T02:08:29.287Z,25.90
2019-06-27T02:10:59.668Z,25.90
2019-06-27T02:13:30.068Z,25.90
2019-06-27T02:16:00.422Z,25.90
2019-06-27T02:18:30.826Z,25.80
2019-06-27T02:21:01.238Z,25.80
2019-06-27T02:23:31.643Z,25.80
2019-06-27T02:26:02.030Z,25.80
2019-06-27T02:28:32.431Z,25.80
2019-06-27T02:31:02.869Z,25.70
2019-06-27T02:33:33.368Z,25.60
2019-06-27T02:36:03.728Z,25.70
2019-06-27T02:38:34.223Z,25.60
2019-06-27T02:41:04.770Z,25.60
2019-06-27T02:43:35.175Z,25.60
2019-06-27T02:46:05.535Z,25.40
2019-06-27T02:48:35.970Z,25.50
2019-06-27T02:51:06.348Z,25.40
2019-06-27T02:53:36.754Z,25.50
2019-06-27T02:56:10.204Z,25.50
2019-06-27T02:58:40.588Z,25.50
2019-06-27T03:01:10.962Z,25.60
2019-06-27T03:03:41.346Z,25.60
2019-06-27T03:06:11.726Z,25.50
2019-06-27T03:08:42.111Z,25.50
2019-06-27T03:11:12.498Z,25.50
2019-06-27T03:13:42.881Z,25.40
2019-06-27T03:16:13.275Z,25.30
2019-06-27T03:18:43.738Z,25.40
2019-06-27T03:21:14.226Z,25.40
2019-06-27T03:23:44.682Z,25.30
2019-06-27T03:26:15.119Z,25.30
2019-06-27T03:28:52.681Z,25.20
2019-06-27T03:31:17.572Z,25.10
2019-06-27T03:33:48.060Z,25.20
2019-06-27T03:36:18.507Z,25.20
2019-06-27T03:38:48.913Z,25.20
2019-06-27T03:41:19.440Z,25.20
2019-06-27T03:43:49.831Z,25.20
2019-06-27T03:46:20.262Z,25.20
2019-06-27T03:48:50.644Z,25.10
2019-06-27T03:51:21.013Z,25.10
2019-06-27T03:53:51.399Z,25.10
2019-06-27T03:56:21.759Z,25.00
2019-06-27T03:59:10.722Z,25.10
2019-06-27T04:01:24.221Z,25.10
2019-06-27T04:04:00.751Z,25.10
2019-06-27T04:06:31.127Z,25.10
2019-06-27T04:09:01.528Z,25.10
2019-06-27T04:11:31.949Z,25.10
2019-06-27T04:14:02.407Z,25.20
2019-06-27T04:16:32.800Z,25.20
2019-06-27T04:19:03.190Z,25.10
2019-06-27T04:21:33.554Z,25.20
2019-06-27T04:24:03.994Z,25.20
2019-06-27T04:26:34.420Z,25.20
2019-06-27T04:29:04.893Z,25.30
2019-06-27T04:31:35.275Z,25.30
2019-06-27T04:34:05.641Z,25.30
2019-06-27T04:36:35.994Z,25.30
2019-06-27T04:39:06.415Z,25.30
2019-06-27T04:41:36.820Z,25.30
2019-06-27T04:44:07.244Z,25.40
2019-06-27T04:46:37.627Z,25.30
2019-06-27T04:49:12.997Z,25.40
2019-06-27T04:51:40.147Z,25.40
2019-06-27T04:54:10.528Z,25.50
2019-06-27T04:56:40.912Z,25.50
2019-06-27T04:59:11.320Z,25.40
2019-06-27T05:01:41.723Z,25.50
2019-06-27T05:04:12.127Z,25.50
2019-06-27T05:06:42.598Z,25.50
2019-06-27T05:09:13.020Z,25.60
2019-06-27T05:11:43.431Z,25.60
2019-06-27T05:14:13.799Z,25.60
2019-06-27T05:16:44.207Z,25.60
2019-06-27T05:19:14.566Z,25.70
2019-06-27T05:21:45.030Z,25.60
2019-06-27T05:24:15.410Z,25.70
2019-06-27T05:26:45.803Z,25.70
2019-06-27T05:29:16.198Z,25.80
2019-06-27T05:31:46.610Z,25.90
2019-06-27T05:34:17.028Z,25.90
2019-06-27T05:36:47.433Z,26.00
2019-06-27T05:39:17.786Z,25.90
2019-06-27T05:41:50.484Z,26.10
2019-06-27T05:44:20.274Z,26.10
2019-06-27T05:46:50.688Z,26.10
2019-06-27T05:49:21.075Z,26.10
2019-06-27T05:51:51.517Z,26.10
2019-06-27T05:54:21.858Z,26.20
2019-06-27T05:56:52.292Z,26.20
2019-06-27T05:59:22.653Z,26.30
2019-06-27T06:01:53.093Z,26.40
2019-06-27T06:04:24.158Z,26.50
2019-06-27T06:06:54.738Z,26.60
2019-06-27T06:09:25.102Z,26.70
2019-06-27T06:11:55.497Z,26.80
2019-06-27T06:14:25.861Z,26.90
2019-06-27T06:16:56.264Z,26.80
2019-06-27T06:19:26.691Z,26.80
2019-06-27T06:21:57.118Z,26.80
2019-06-27T06:24:27.517Z,26.80
2019-06-27T06:26:57.918Z,26.80
2019-06-27T06:29:28.290Z,26.80
2019-06-27T06:31:58.680Z,26.90
2019-06-27T06:34:29.040Z,26.90
2019-06-27T06:36:59.410Z,27.00
2019-06-27T06:39:29.794Z,27.10
2019-06-27T06:42:00.204Z,27.10
2019-06-27T06:44:30.561Z,27.30
2019-06-27T06:47:01.261Z,27.30
2019-06-27T06:49:31.630Z,27.50
2019-06-27T06:52:02.030Z,27.60
2019-06-27T06:54:32.430Z,27.60
2019-06-27T06:57:02.873Z,27.60
2019-06-27T06:59:34.294Z,27.70
2019-06-27T07:02:04.677Z,27.70
2019-06-27T07:04:35.042Z,27.90
2019-06-27T07:07:05.447Z,28.00
2019-06-27T07:09:35.814Z,28.20
2019-06-27T07:12:06.230Z,28.40
2019-06-27T07:14:36.600Z,28.50
2019-06-27T07:17:06.998Z,28.70
2019-06-27T07:19:37.380Z,28.90
2019-06-27T07:22:07.759Z,29.00
2019-06-27T07:24:38.106Z,29.10
2019-06-27T07:27:08.521Z,29.10
2019-06-27T07:29:38.987Z,29.20
2019-06-27T07:32:09.417Z,29.40
2019-06-27T07:34:39.786Z,29.50
2019-06-27T07:37:10.174Z,29.60
2019-06-27T07:39:40.558Z,29.70
2019-06-27T07:42:10.942Z,29.70
2019-06-27T07:44:41.339Z,29.70
2019-06-27T07:47:11.729Z,29.80
2019-06-27T07:49:42.121Z,29.90
2019-06-27T07:52:12.517Z,29.90
2019-06-27T07:54:42.965Z,29.90
2019-06-27T07:57:13.363Z,29.90
2019-06-27T07:59:43.761Z,30.00
2019-06-27T08:02:16.394Z,30.00
2019-06-27T08:04:46.266Z,30.10
2019-06-27T08:07:16.662Z,30.20
2019-06-27T08:09:47.050Z,30.30
2019-06-27T08:12:17.528Z,30.30
2019-06-27T08:14:47.937Z,30.50
2019-06-27T08:17:18.293Z,30.50
2019-06-27T08:19:48.663Z,30.60
2019-06-27T08:22:19.038Z,30.80
2019-06-27T08:24:49.425Z,30.90
2019-06-27T08:27:19.805Z,31.00
2019-06-27T08:29:50.275Z,31.10
2019-06-27T08:32:20.642Z,31.20
2019-06-27T08:34:51.047Z,31.30
2019-06-27T08:37:21.425Z,31.30
2019-06-27T08:39:51.802Z,31.40
2019-06-27T08:42:22.163Z,31.50
2019-06-27T08:44:52.538Z,31.70
2019-06-27T08:47:22.926Z,31.80
2019-06-27T08:49:53.412Z,31.90
2019-06-27T08:52:23.842Z,32.00
2019-06-27T08:54:54.206Z,32.10
2019-06-27T08:57:24.593Z,32.20
2019-06-27T08:59:54.958Z,32.30
2019-06-27T09:02:25.361Z,32.40
2019-06-27T09:04:55.727Z,32.50
2019-06-27T09:07:26.121Z,32.60
2019-06-27T09:09:56.485Z,32.70
2019-06-27T09:12:26.873Z,32.90
2019-06-27T09:14:57.223Z,33.10
2019-06-27T09:17:27.615Z,33.10
2019-06-27T09:19:58.028Z,33.30
2019-06-27T09:22:28.430Z,33.40
2019-06-27T09:24:58.862Z,33.50
2019-06-27T09:27:29.332Z,33.60
2019-06-27T09:29:59.705Z,33.80
2019-06-27T09:32:30.111Z,33.90
2019-06-27T09:35:00.502Z,34.10
2019-06-27T09:37:30.974Z,34.20
2019-06-27T09:40:01.398Z,34.30
2019-06-27T09:42:31.834Z,34.40
2019-06-27T09:45:02.198Z,34.60
2019-06-27T09:47:32.599Z,34.70
2019-06-27T09:50:02.982Z,34.90
2019-06-27T09:52:33.423Z,35.20
2019-06-27T09:55:03.836Z,35.40
2019-06-27T09:57:34.218Z,35.70
2019-06-27T10:00:05.498Z,36.00
2019-06-27T10:02:41.712Z,36.50
2019-06-27T10:05:08.070Z,37.00
2019-06-27T10:07:38.473Z,37.90
2019-06-27T10:10:09.114Z,39.30
2019-06-27T10:12:42.691Z,40.60
2019-06-27T10:15:12.073Z,41.50
2019-06-27T10:17:42.471Z,42.30
2019-06-27T10:20:14.397Z,42.50
2019-06-27T10:22:44.778Z,40.60
2019-06-27T10:25:15.273Z,39.10
2019-06-27T10:27:45.717Z,37.80
2019-06-27T10:30:17.100Z,36.70
2019-06-27T10:32:58.247Z,35.90
2019-06-27T10:35:19.566Z,35.40
2019-06-27T10:37:49.946Z,35.00
2019-06-27T10:40:20.413Z,34.80
2019-06-27T10:42:50.801Z,34.60
2019-06-27T10:45:21.168Z,34.50
2019-06-27T10:47:51.565Z,34.40
2019-06-27T10:50:21.926Z,34.30
2019-06-27T10:52:52.350Z,34.20
2019-06-27T10:55:22.809Z,34.10
2019-06-27T10:57:53.211Z,34.10
2019-06-27T11:00:23.663Z,34.10
2019-06-27T11:02:54.176Z,33.90
2019-06-27T11:05:24.616Z,34.00
2019-06-27T11:07:55.134Z,33.90
2019-06-27T11:10:25.506Z,34.00
2019-06-27T11:12:59.149Z,33.90
2019-06-27T11:15:27.959Z,34.00
2019-06-27T11:17:58.423Z,34.00
2019-06-27T11:20:28.816Z,34.00
2019-06-27T11:22:59.178Z,34.10
2019-06-27T11:25:29.574Z,34.10
2019-06-27T11:27:59.971Z,34.10
2019-06-27T11:30:30.365Z,34.10
2019-06-27T11:33:00.807Z,34.10
2019-06-27T11:35:31.190Z,34.10
2019-06-27T11:38:01.591Z,34.10
2019-06-27T11:40:31.980Z,34.10
2019-06-27T11:43:02.527Z,34.00
2019-06-27T11:45:32.935Z,34.00
2019-06-27T11:48:03.309Z,34.00
2019-06-27T11:50:33.702Z,34.00
2019-06-27T11:53:04.087Z,34.00
2019-06-27T11:55:34.486Z,34.10
2019-06-27T11:58:05.020Z,34.10
2019-06-27T12:00:35.406Z,34.10
2019-06-27T12:03:05.938Z,34.20
2019-06-27T12:05:36.327Z,34.20
2019-06-27T12:08:09.897Z,34.10
2019-06-27T12:10:38.788Z,34.20
2019-06-27T12:13:09.157Z,34.20
2019-06-27T12:15:39.542Z,34.10
2019-06-27T12:18:09.930Z,34.10
2019-06-27T12:20:40.376Z,34.20
2019-06-27T12:23:10.809Z,34.20
2019-06-27T12:25:41.221Z,34.10
2019-06-27T12:28:11.674Z,34.10
2019-06-27T12:30:42.123Z,34.10
2019-06-27T12:33:12.481Z,34.20
2019-06-27T12:35:42.874Z,34.20
2019-06-27T12:38:13.530Z,34.20
2019-06-27T12:40:44.139Z,34.10
2019-06-27T12:43:14.731Z,34.20
2019-06-27T12:45:45.181Z,34.20
2019-06-27T12:48:15.562Z,34.10
2019-06-27T12:50:45.947Z,34.10
2019-06-27T12:53:16.321Z,34.10
2019-06-27T12:55:46.710Z,34.20
2019-06-27T12:58:17.155Z,34.10
2019-06-27T13:00:47.602Z,34.10
2019-06-27T13:03:17.952Z,34.10
2019-06-27T13:05:48.362Z,34.00
2019-06-27T13:08:18.752Z,33.80
2019-06-27T13:10:49.166Z,33.90
2019-06-27T13:13:19.538Z,34.00
2019-06-27T13:15:49.921Z,34.00
2019-06-27T13:18:20.273Z,34.00
2019-06-27T13:20:57.934Z,34.00
2019-06-27T13:23:22.714Z,34.10
2019-06-27T13:25:53.128Z,34.00
2019-06-27T13:28:23.508Z,34.10
2019-06-27T13:30:53.935Z,34.20
2019-06-27T13:33:24.449Z,34.10
2019-06-27T13:35:54.854Z,34.20
2019-06-27T13:38:25.249Z,34.10
2019-06-27T13:40:55.651Z,34.10
2019-06-27T13:43:26.026Z,34.10
2019-06-27T13:45:56.441Z,34.20
2019-06-27T13:48:26.847Z,34.20
2019-06-27T13:50:57.925Z,34.20
2019-06-27T13:53:28.522Z,34.20
2019-06-27T13:55:58.912Z,34.00
2019-06-27T13:58:29.361Z,34.00
2019-06-27T14:00:59.753Z,34.10
2019-06-27T14:03:30.115Z,34.20
2019-06-27T14:06:00.503Z,34.10
2019-06-27T14:08:30.900Z,34.10
2019-06-27T14:11:01.376Z,34.10
2019-06-27T14:13:31.804Z,34.10
2019-06-27T14:16:05.680Z,34.10
2019-06-27T14:18:34.277Z,34.10
2019-06-27T14:21:04.666Z,34.10
2019-06-27T14:23:35.037Z,34.20
2019-06-27T14:26:05.461Z,34.10
2019-06-27T14:28:35.839Z,34.00
2019-06-27T14:31:06.228Z,34.00
2019-06-27T14:33:36.622Z,33.90
2019-06-27T14:36:07.029Z,33.90
2019-06-27T14:38:37.396Z,33.90
2019-06-27T14:41:07.991Z,33.90
2019-06-27T14:43:38.358Z,33.80
2019-06-27T14:46:08.765Z,33.80
2019-06-27T14:48:39.129Z,33.80
2019-06-27T14:51:09.518Z,33.90
2019-06-27T14:53:39.905Z,33.90
2019-06-27T14:56:10.322Z,33.80
2019-06-27T14:58:40.682Z,33.90
2019-06-27T15:01:11.109Z,33.90
2019-06-27T15:03:41.489Z,33.90
2019-06-27T15:06:12.599Z,33.80
2019-06-27T15:08:43.150Z,33.90
2019-06-27T15:11:13.547Z,33.90
2019-06-27T15:13:43.978Z,33.80
2019-06-27T15:16:14.365Z,33.80
2019-06-27T15:18:44.746Z,33.60
2019-06-27T15:21:15.171Z,33.60
2019-06-27T15:23:45.746Z,33.50
2019-06-27T15:26:16.199Z,33.50
2019-06-27T15:28:46.666Z,33.50
2019-06-27T15:31:17.089Z,33.50
2019-06-27T15:33:47.535Z,33.40
2019-06-27T15:36:17.945Z,33.40
2019-06-27T15:38:48.467Z,33.40
2019-06-27T15:41:18.933Z,33.30
2019-06-27T15:43:49.313Z,33.30
2019-06-27T15:46:19.761Z,33.20
2019-06-27T15:48:50.212Z,33.20
2019-06-27T15:51:20.622Z,33.10
2019-06-27T15:53:51.023Z,33.20
2019-06-27T15:56:21.464Z,33.20
2019-06-27T15:58:51.888Z,33.10
2019-06-27T16:01:22.258Z,33.10
2019-06-27T16:03:52.629Z,33.00
2019-06-27T16:06:23.047Z,33.00
2019-06-27T16:08:53.502Z,33.00
2019-06-27T16:11:23.907Z,33.00
2019-06-27T16:13:54.302Z,33.00
2019-06-27T16:16:24.696Z,33.00
2019-06-27T16:18:55.186Z,32.90
2019-06-27T16:21:25.573Z,32.90
2019-06-27T16:23:56.021Z,32.80
2019-06-27T16:26:26.463Z,32.70
2019-06-27T16:28:56.840Z,32.70
2019-06-27T16:31:27.238Z,32.70
2019-06-27T16:33:57.626Z,32.60
2019-06-27T16:36:28.005Z,32.60
2019-06-27T16:38:58.369Z,32.60
2019-06-27T16:41:28.757Z,32.50
2019-06-27T16:43:59.108Z,32.40
2019-06-27T16:46:29.548Z,32.40
2019-06-27T16:48:59.910Z,32.40
2019-06-27T16:51:30.287Z,32.20
2019-06-27T16:54:00.666Z,32.20
2019-06-27T16:56:31.088Z,32.10
2019-06-27T16:59:01.551Z,32.00
2019-06-27T17:01:31.931Z,31.80
2019-06-27T17:04:02.327Z,31.70
2019-06-27T17:06:42.198Z,31.70
2019-06-27T17:09:05.939Z,31.60
2019-06-27T17:11:36.436Z,31.40
2019-06-27T17:14:06.811Z,31.30
2019-06-27T17:16:37.283Z,31.30
2019-06-27T17:19:07.662Z,31.40
2019-06-27T17:21:38.038Z,31.30
2019-06-27T17:24:08.445Z,31.20
2019-06-27T17:26:38.887Z,31.10
2019-06-27T17:29:09.315Z,31.10
2019-06-27T17:31:39.734Z,31.00
2019-06-27T17:34:13.723Z,30.90
2019-06-27T17:36:56.630Z,30.90
2019-06-27T17:39:14.290Z,31.00
2019-06-27T17:41:44.683Z,30.90
2019-06-27T17:44:15.068Z,30.90
2019-06-27T17:46:46.512Z,30.80
2019-06-27T17:49:17.144Z,30.70
2019-06-27T17:51:47.897Z,30.60
2019-06-27T17:54:18.920Z,30.60
2019-06-27T17:56:49.369Z,30.50
2019-06-27T17:59:19.735Z,30.40
2019-06-27T18:01:50.123Z,30.40
2019-06-27T18:04:20.544Z,30.40
2019-06-27T18:06:50.947Z,30.40
2019-06-27T18:09:21.336Z,30.40
2019-06-27T18:11:51.734Z,30.30
2019-06-27T18:14:22.150Z,30.20
2019-06-27T18:16:52.612Z,30.20
2019-06-27T18:19:22.996Z,30.10
2019-06-27T18:21:53.387Z,30.10
2019-06-27T18:24:23.802Z,30.00
2019-06-27T18:26:54.266Z,29.90
2019-06-27T18:29:24.623Z,29.90
2019-06-27T18:31:55.058Z,29.90
2019-06-27T18:34:25.522Z,29.80
2019-06-27T18:36:56.044Z,29.80
2019-06-27T18:39:26.396Z,29.70
2019-06-27T18:41:57.444Z,29.50
2019-06-27T18:44:27.884Z,29.50
2019-06-27T18:46:58.322Z,29.50
2019-06-27T18:49:28.681Z,29.50
2019-06-27T18:51:59.102Z,29.40
2019-06-27T18:54:29.502Z,29.30
2019-06-27T18:56:59.889Z,29.30
2019-06-27T18:59:30.269Z,29.10
2019-06-27T19:02:00.921Z,29.10
2019-06-27T19:04:31.375Z,29.00
2019-06-27T19:07:01.831Z,28.90
2019-06-27T19:09:32.290Z,28.90
2019-06-27T19:12:02.720Z,28.90
2019-06-27T19:14:33.096Z,28.90
2019-06-27T19:17:03.468Z,28.80
2019-06-27T19:19:35.549Z,28.70
2019-06-27T19:22:24.887Z,28.70
2019-06-27T19:25:00.395Z,28.60
2019-06-27T19:27:30.840Z,28.60
2019-06-27T19:30:01.191Z,28.50
2019-06-27T19:32:31.627Z,28.40
2019-06-27T19:35:02.139Z,28.30
2019-06-27T19:37:32.590Z,28.30
2019-06-27T19:40:02.975Z,28.10
2019-06-27T19:42:33.354Z,28.00
2019-06-27T19:45:03.764Z,28.00
2019-06-27T19:47:34.158Z,27.90
2019-06-27T19:50:04.890Z,27.80
2019-06-27T19:52:35.310Z,27.60
2019-06-27T19:55:06.079Z,27.60
2019-06-27T19:57:36.486Z,27.40
2019-06-27T20:00:07.428Z,27.30
2019-06-27T20:02:37.852Z,27.30
2019-06-27T20:05:08.504Z,27.20
2019-06-27T20:07:38.910Z,27.20
2019-06-27T20:10:11.676Z,27.10
2019-06-27T20:12:41.580Z,27.10
2019-06-27T20:15:11.979Z,26.90
2019-06-27T20:17:42.380Z,26.80
2019-06-27T20:20:13.562Z,26.80
2019-06-27T20:22:44.014Z,26.70
2019-06-27T20:25:14.394Z,26.50
2019-06-27T20:27:44.838Z,26.40
2019-06-27T20:30:16.547Z,26.40
2019-06-27T20:32:47.066Z,26.20
2019-06-27T20:35:17.618Z,26.10
2019-06-27T20:37:48.061Z,26.20
2019-06-27T20:40:20.757Z,26.10
2019-06-27T20:42:51.255Z,25.90
2019-06-27T20:45:21.657Z,25.90
2019-06-27T20:47:52.185Z,25.80
2019-06-27T20:50:22.652Z,25.80
2019-06-27T20:52:53.295Z,25.60
2019-06-27T20:55:23.776Z,25.60
2019-06-27T20:57:54.309Z,25.60
2019-06-27T21:00:24.747Z,25.60
2019-06-27T21:02:55.309Z,25.40
2019-06-27T21:05:26.048Z,25.30
2019-06-27T21:07:56.946Z,25.30
2019-06-27T21:10:27.617Z,25.20
2019-06-27T21:12:58.159Z,25.10
2019-06-27T21:15:28.557Z,25.00
2019-06-27T21:17:59.048Z,25.00
2019-06-27T21:20:29.502Z,24.90
2019-06-27T21:22:59.969Z,24.80
2019-06-27T21:25:30.455Z,24.80
2019-06-27T21:28:00.899Z,24.70
2019-06-27T21:30:31.255Z,24.70
2019-06-27T21:33:01.683Z,24.70
2019-06-27T21:35:32.166Z,24.70
2019-06-27T21:38:02.602Z,24.70
2019-06-27T21:40:33.125Z,24.60
2019-06-27T21:43:03.541Z,24.60
2019-06-27T21:45:34.066Z,24.50
2019-06-27T21:48:06.260Z,24.50
2019-06-27T21:50:36.630Z,24.50
2019-06-27T21:53:07.006Z,24.40
2019-06-27T21:55:37.375Z,24.40
2019-06-27T21:58:07.891Z,24.40
2019-06-27T22:00:39.286Z,24.30
2019-06-27T22:03:09.779Z,24.20
2019-06-27T22:05:40.185Z,24.20
2019-06-27T22:08:10.634Z,24.10
2019-06-27T22:10:41.043Z,24.00
2019-06-27T22:13:11.423Z,24.00
2019-06-27T22:15:51.426Z,23.90
2019-06-27T22:18:21.821Z,23.90
2019-06-27T22:20:52.179Z,23.80
2019-06-27T22:23:22.577Z,23.80
2019-06-27T22:25:52.947Z,23.70
2019-06-27T22:28:23.325Z,23.70
2019-06-27T22:30:53.689Z,23.60
2019-06-27T22:33:24.167Z,23.50
2019-06-27T22:35:54.653Z,23.50
2019-06-27T22:38:42.954Z,23.40
2019-06-27T22:41:30.854Z,23.30
2019-06-27T22:44:19.145Z,23.20
2019-06-27T22:47:07.291Z,23.10
2019-06-27T22:49:37.606Z,23.00
2019-06-27T22:52:37.353Z,22.90
2019-06-27T22:55:09.404Z,22.90
2019-06-27T22:57:39.839Z,22.90
2019-06-27T23:00:10.645Z,22.70
2019-06-27T23:02:41.016Z,22.60
2019-06-27T23:05:11.424Z,22.60
2019-06-27T23:07:41.815Z,22.50
2019-06-27T23:10:12.505Z,22.40
2019-06-27T23:12:42.942Z,22.40
2019-06-27T23:15:13.610Z,22.30
2019-06-27T23:17:43.999Z,22.30
2019-06-27T23:20:14.563Z,22.20
2019-06-27T23:22:44.942Z,22.20
2019-06-27T23:25:15.314Z,22.10
2019-06-27T23:27:45.776Z,22.10
2019-06-27T23:30:16.127Z,22.10
2019-06-27T23:32:46.501Z,22.10
2019-06-27T23:35:16.976Z,22.00
2019-06-27T23:37:47.395Z,21.90
2019-06-27T23:40:17.957Z,21.80
2019-06-27T23:42:48.357Z,21.70
2019-06-27T23:45:19.811Z,21.70
2019-06-27T23:47:50.225Z,21.60
2019-06-27T23:50:20.577Z,21.60
2019-06-27T23:52:50.966Z,21.60
2019-06-27T23:55:21.323Z,21.60
2019-06-27T23:57:51.705Z,21.60
